KBKE/BKE METAR and TAF weather

Enter ICAO airport designator
Station Type Date Time Source
KBKE METAR 2018/04/19 12:53 UTC NOAA

KBKE 191253Z AUTO 00000KT 10SM CLR 04/M02 A3002 RMK AO2 SLP168 T00441022 TSNO


Station Type Date Time Source
KBKE Decoded METAR 2018/04/19 12:53 UTC NOAA

BAKER MUNICIPAL AIRPORT, OR, United States (KBKE) 44-50N 117-49W 1024M
Apr 19, 2018 - 08:53 AM EDT / 2018.04.19 1253 UTC
Wind: Calm:0
Visibility: 10 mile(s):0
Sky conditions: clear
Temperature: 39.9 F (4.4 C)
Dew Point: 28.0 F (-2.2 C)
Relative Humidity: 62%
Pressure (altimeter): 30.02 in. Hg (1016 hPa)
ob: KBKE 191253Z AUTO 00000KT 10SM CLR 04/M02 A3002 RMK AO2 SLP168 T00441022 TSNO
cycle: 13

Station Type Date Time Source
KBKE TAF 2018/04/19 12:42 UTC NOAA

TAF KBKE 191139Z 1912/2012 VRB06KT P6SM OVC090
FM191600 32020G30KT P6SM SCT080 BKN150
FM200400 34010KT P6SM SKC


Example: see airport list